sensor_id;sensor_type;location;lat;lon;timestamp;pressure;altitude;pressure_sealevel;temperature;humidity
53940;BME280;39850;43.324;21.916;2022-08-03T14:03:21;990.0;;;28.2;30.0
53940;BME280;39850;43.324;21.916;2022-08-03T14:07:58;990.0;;;28.2;30.0
53940;BME280;39850;43.324;21.916;2022-08-03T14:12:35;990.0;;;27.9;30.0
53940;BME280;39850;43.324;21.916;2022-08-03T14:17:12;990.0;;;27.9;30.0
53940;BME280;39850;43.324;21.916;2022-08-03T14:21:48;990.0;;;28.2;29.0
53940;BME280;39850;43.324;21.916;2022-08-03T14:26:25;990.0;;;28.2;29.0
53940;BME280;39850;43.324;21.916;2022-08-03T14:31:04;990.0;;;27.9;29.0
53940;BME280;39850;43.324;21.916;2022-08-03T14:35:41;990.0;;;27.9;29.0
53940;BME280;39850;43.324;21.916;2022-08-03T14:40:18;990.0;;;27.9;29.0
53940;BME280;39850;43.324;21.916;2022-08-03T14:44:56;990.0;;;28.2;28.0
53940;BME280;39850;43.324;21.916;2022-08-03T14:49:32;990.0;;;28.2;28.0
53940;BME280;39850;43.324;21.916;2022-08-03T15:21:51;989.0;;;28.2;25.0
53940;BME280;39850;43.324;21.916;2022-08-03T15:26:28;989.0;;;28.2;25.0
53940;BME280;39850;43.324;21.916;2022-08-03T15:31:05;989.0;;;28.1;26.0
53940;BME280;39850;43.324;21.916;2022-08-03T15:35:42;989.0;;;28.1;26.0
53940;BME280;39850;43.324;21.916;2022-08-03T15:40:19;989.0;;;28.1;26.0
53940;BME280;39850;43.324;21.916;2022-08-03T15:44:57;989.0;;;28.0;25.0
53940;BME280;39850;43.324;21.916;2022-08-03T15:49:34;989.0;;;28.0;25.0
53940;BME280;39850;43.324;21.916;2022-08-03T15:54:12;989.0;;;28.0;26.0
53940;BME280;39850;43.324;21.916;2022-08-03T15:58:49;989.0;;;28.0;26.0
53940;BME280;39850;43.324;21.916;2022-08-03T16:03:28;989.0;;;28.0;25.0
53940;BME280;39850;43.324;21.916;2022-08-03T16:08:05;989.0;;;28.0;25.0
53940;BME280;39850;43.324;21.916;2022-08-03T16:45:10;989.0;;;27.3;36.0
53940;BME280;39850;43.324;21.916;2022-08-03T16:49:47;989.0;;;27.3;36.0
53940;BME280;39850;43.324;21.916;2022-08-03T16:54:24;989.0;;;27.3;36.0
53940;BME280;39850;43.324;21.916;2022-08-03T16:59:04;989.0;;;27.3;36.0
53940;BME280;39850;43.324;21.916;2022-08-03T17:03:40;989.0;;;27.3;36.0
53940;BME280;39850;43.324;21.916;2022-08-03T17:08:18;989.0;;;27.3;36.0
53940;BME280;39850;43.324;21.916;2022-08-03T17:12:55;990.0;;;27.3;36.0
53940;BME280;39850;43.324;21.916;2022-08-03T17:17:37;990.0;;;27.3;36.0
53940;BME280;39850;43.324;21.916;2022-08-03T17:22:39;990.0;;;27.3;36.0
53940;BME280;39850;43.324;21.916;2022-08-03T17:27:39;990.0;;;27.3;36.0
53940;BME280;39850;43.324;21.916;2022-08-03T18:02:45;990.0;;;26.4;40.0
53940;BME280;39850;43.324;21.916;2022-08-03T18:07:50;990.0;;;26.4;40.0
53940;BME280;39850;43.324;21.916;2022-08-03T18:12:56;990.0;;;26.4;40.0
53940;BME280;39850;43.324;21.916;2022-08-03T18:17:58;990.0;;;26.4;40.0
53940;BME280;39850;43.324;21.916;2022-08-03T18:22:42;990.0;;;26.4;40.0
53940;BME280;39850;43.324;21.916;2022-08-03T18:27:23;990.0;;;26.4;40.0
53940;BME280;39850;43.324;21.916;2022-08-03T18:32:07;990.0;;;26.4;40.0
53940;BME280;39850;43.324;21.916;2022-08-03T18:36:48;990.0;;;26.4;40.0
53940;BME280;39850;43.324;21.916;2022-08-03T18:41:26;990.0;;;26.4;40.0
53940;BME280;39850;43.324;21.916;2022-08-03T18:46:46;990.0;;;26.4;40.0
53940;BME280;39850;43.324;21.916;2022-08-03T19:25:55;991.0;;;25.5;45.0
53940;BME280;39850;43.324;21.916;2022-08-03T19:30:39;991.0;;;25.5;45.0
53940;BME280;39850;43.324;21.916;2022-08-03T19:35:17;991.0;;;25.5;46.0
53940;BME280;39850;43.324;21.916;2022-08-03T19:39:54;991.0;;;25.5;46.0
53940;BME280;39850;43.324;21.916;2022-08-03T19:44:43;991.0;;;25.5;47.0
53940;BME280;39850;43.324;21.916;2022-08-03T19:49:38;991.0;;;25.5;47.0
53940;BME280;39850;43.324;21.916;2022-08-03T19:54:21;991.0;;;25.2;48.0
53940;BME280;39850;43.324;21.916;2022-08-03T19:59:01;991.0;;;25.2;48.0
53940;BME280;39850;43.324;21.916;2022-08-03T20:03:39;991.0;;;25.0;48.0
53940;BME280;39850;43.324;21.916;2022-08-03T20:08:20;991.0;;;25.0;48.0
53940;BME280;39850;43.324;21.916;2022-08-03T20:45:51;991.0;;;23.6;50.0
53940;BME280;39850;43.324;21.916;2022-08-03T20:50:29;991.0;;;23.6;50.0
53940;BME280;39850;43.324;21.916;2022-08-03T20:55:09;991.0;;;23.6;50.0
53940;BME280;39850;43.324;21.916;2022-08-03T20:59:48;991.0;;;23.6;50.0
53940;BME280;39850;43.324;21.916;2022-08-03T21:04:25;991.0;;;23.6;51.0
53940;BME280;39850;43.324;21.916;2022-08-03T21:09:08;991.0;;;23.6;51.0
53940;BME280;39850;43.324;21.916;2022-08-03T21:14:14;991.0;;;23.2;51.0
53940;BME280;39850;43.324;21.916;2022-08-03T21:19:05;991.0;;;23.2;51.0
53940;BME280;39850;43.324;21.916;2022-08-03T21:23:53;991.0;;;22.7;52.0
53940;BME280;39850;43.324;21.916;2022-08-03T21:28:34;991.0;;;22.7;52.0
53940;BME280;39850;43.324;21.916;2022-08-03T22:06:18;992.0;;;22.7;55.0
53940;BME280;39850;43.324;21.916;2022-08-03T22:10:56;992.0;;;22.7;55.0
53940;BME280;39850;43.324;21.916;2022-08-03T22:15:33;992.0;;;22.2;55.0
53940;BME280;39850;43.324;21.916;2022-08-03T22:20:14;992.0;;;22.2;55.0
53940;BME280;39850;43.324;21.916;2022-08-03T22:25:08;992.0;;;21.8;56.0
53940;BME280;39850;43.324;21.916;2022-08-03T22:29:49;992.0;;;21.8;56.0
53940;BME280;39850;43.324;21.916;2022-08-03T22:34:29;992.0;;;21.8;56.0
53940;BME280;39850;43.324;21.916;2022-08-03T22:39:06;992.0;;;21.8;56.0
53940;BME280;39850;43.324;21.916;2022-08-03T22:43:43;992.0;;;21.8;57.0
53940;BME280;39850;43.324;21.916;2022-08-03T22:48:22;992.0;;;21.8;57.0
53940;BME280;39850;43.324;21.916;2022-08-03T23:26:06;992.0;;;21.8;57.0
53940;BME280;39850;43.324;21.916;2022-08-03T23:30:49;992.0;;;21.8;57.0
53940;BME280;39850;43.324;21.916;2022-08-03T23:35:26;992.0;;;21.3;57.0
53940;BME280;39850;43.324;21.916;2022-08-03T23:40:12;992.0;;;21.3;57.0
53940;BME280;39850;43.324;21.916;2022-08-03T23:45:02;992.0;;;20.8;57.0
53940;BME280;39850;43.324;21.916;2022-08-03T23:49:43;992.0;;;20.8;57.0
53940;BME280;39850;43.324;21.916;2022-08-03T23:55:13;992.0;;;20.8;58.0
